createdAt,value
2018-02-13T00:00:10.853Z,0.48
2018-02-13T00:01:26.086Z,0.49
2018-02-13T00:02:40.979Z,0.53
2018-02-13T00:03:56.194Z,0.57
2018-02-13T00:05:10.626Z,0.63
2018-02-13T00:06:25.831Z,0.69
2018-02-13T00:07:40.706Z,0.76
2018-02-13T00:08:55.640Z,0.82
2018-02-13T00:10:10.842Z,0.9
2018-02-13T00:11:25.776Z,0.94
2018-02-13T00:12:40.262Z,1.01
2018-02-13T00:13:54.675Z,1.05
2018-02-13T00:15:08.441Z,1.1
2018-02-13T00:16:23.173Z,1.14
2018-02-13T00:17:38.150Z,1.18
2018-02-13T00:18:52.756Z,1.21
2018-02-13T00:20:08.100Z,1.25
2018-02-13T00:21:22.714Z,1.29
2018-02-13T00:22:37.775Z,1.34
2018-02-13T00:23:52.429Z,1.38
2018-02-13T00:25:07.816Z,1.38
2018-02-13T00:26:22.738Z,1.37
2018-02-13T00:27:36.984Z,1.37
2018-02-13T00:28:51.701Z,1.35
2018-02-13T00:30:06.441Z,1.35
2018-02-13T00:31:21.055Z,1.32
2018-02-13T00:32:36.320Z,1.33
2018-02-13T00:33:50.654Z,1.33
2018-02-13T00:35:04.958Z,1.35
2018-02-13T00:36:19.617Z,1.35
2018-02-13T00:37:34.344Z,1.32
2018-02-13T00:38:49.222Z,1.32
2018-02-13T00:40:03.082Z,1.31
2018-02-13T00:41:17.933Z,1.33
2018-02-13T00:42:33.071Z,1.36
2018-02-13T00:43:47.531Z,1.39
2018-02-13T00:45:02.445Z,1.42
2018-02-13T00:46:17.326Z,1.44
2018-02-13T00:47:32.454Z,1.43
2018-02-13T00:48:47.553Z,1.44
2018-02-13T00:50:02.399Z,1.47
2018-02-13T00:51:18.186Z,1.47
2018-02-13T00:52:32.592Z,1.51
2018-02-13T00:53:47.215Z,1.53
2018-02-13T00:55:02.387Z,1.55
2018-02-13T00:56:17.360Z,1.54
2018-02-13T00:57:32.530Z,1.54
2018-02-13T00:58:47.284Z,1.52
2018-02-13T01:00:01.895Z,1.51
2018-02-13T01:01:16.588Z,1.48
2018-02-13T01:02:31.164Z,1.47
2018-02-13T01:03:46.120Z,1.44
2018-02-13T01:05:00.647Z,1.43
2018-02-13T01:06:15.291Z,1.43
2018-02-13T01:07:29.924Z,1.44
2018-02-13T01:08:44.910Z,1.46
2018-02-13T01:09:59.880Z,1.47
2018-02-13T01:11:14.712Z,1.49
2018-02-13T01:12:29.044Z,1.52
2018-02-13T01:13:44.132Z,1.55
2018-02-13T01:14:59.226Z,1.56
2018-02-13T01:16:14.375Z,1.56
2018-02-13T01:17:29.004Z,1.58
2018-02-13T01:18:43.526Z,1.59
2018-02-13T01:19:58.698Z,1.61
2018-02-13T01:21:13.589Z,1.63
2018-02-13T01:22:28.766Z,1.65
2018-02-13T01:23:43.136Z,1.65
2018-02-13T01:24:58.490Z,1.65
2018-02-13T01:26:12.536Z,1.64
2018-02-13T01:27:27.378Z,1.63
2018-02-13T01:28:41.707Z,1.62
2018-02-13T01:29:56.505Z,1.62
2018-02-13T01:31:11.681Z,1.6
2018-02-13T01:32:26.287Z,1.58
2018-02-13T01:33:53.909Z,1.53
2018-02-13T01:35:08.861Z,1.47
2018-02-13T01:36:22.884Z,1.42
2018-02-13T01:37:37.466Z,1.36
2018-02-13T01:38:52.854Z,1.31
2018-02-13T01:40:07.948Z,1.23
2018-02-13T01:41:22.270Z,1.19
2018-02-13T01:42:36.255Z,1.12
2018-02-13T01:43:51.152Z,1.07
2018-02-13T01:45:06.022Z,1.02
2018-02-13T01:46:20.906Z,0.96
2018-02-13T01:47:35.874Z,0.93
2018-02-13T01:48:50.440Z,0.92
2018-02-13T01:50:05.215Z,0.92
2018-02-13T01:51:20.083Z,0.93
2018-02-13T01:52:34.622Z,0.93
2018-02-13T01:53:49.482Z,0.94
2018-02-13T01:55:04.549Z,0.95
2018-02-13T01:56:19.121Z,0.96
2018-02-13T01:57:33.647Z,0.93
2018-02-13T01:58:48.016Z,0.9
2018-02-13T02:00:03.385Z,0.88
2018-02-13T02:01:18.295Z,0.85
2018-02-13T02:02:32.644Z,0.84
2018-02-13T02:03:46.931Z,0.82
2018-02-13T02:05:01.958Z,0.8
2018-02-13T02:06:17.116Z,0.77
2018-02-13T02:07:32.248Z,0.74
2018-02-13T02:08:46.862Z,0.74
2018-02-13T02:10:01.738Z,0.74
2018-02-13T02:11:16.880Z,0.75
2018-02-13T02:12:31.799Z,0.76
2018-02-13T02:13:46.339Z,0.76
2018-02-13T02:15:01.238Z,0.77
2018-02-13T02:16:15.861Z,0.76
2018-02-13T02:17:29.911Z,0.78
2018-02-13T02:18:44.783Z,0.79
2018-02-13T02:19:59.652Z,0.8
2018-02-13T02:21:15.208Z,0.81
2018-02-13T02:22:30.112Z,0.85
2018-02-13T02:23:45.233Z,0.89
2018-02-13T02:25:00.649Z,0.93
2018-02-13T02:26:15.374Z,0.98
2018-02-13T02:27:29.681Z,1.02
2018-02-13T02:28:44.552Z,1.06
2018-02-13T02:29:59.417Z,1.08
2018-02-13T02:31:14.562Z,1.11
2018-02-13T02:32:29.723Z,1.13
2018-02-13T02:33:44.847Z,1.16
2018-02-13T02:34:59.714Z,1.17
2018-02-13T02:36:14.613Z,1.19
2018-02-13T02:37:29.768Z,1.22
2018-02-13T02:38:44.667Z,1.23
2018-02-13T02:39:59.865Z,1.22
2018-02-13T02:41:15.097Z,1.21
2018-02-13T02:42:30.279Z,1.2
2018-02-13T02:43:45.142Z,1.21
2018-02-13T02:44:59.446Z,1.19
2018-02-13T02:46:14.407Z,1.18
2018-02-13T02:47:29.543Z,1.13
2018-02-13T02:48:43.863Z,1.09
2018-02-13T02:49:58.740Z,1.07
2018-02-13T02:51:13.703Z,1.03
2018-02-13T02:52:28.605Z,1
2018-02-13T02:53:43.475Z,0.98
2018-02-13T02:54:58.361Z,0.98
2018-02-13T02:56:13.057Z,0.97
2018-02-13T02:57:27.953Z,0.97
2018-02-13T02:58:42.286Z,0.97
2018-02-13T02:59:56.952Z,0.95
2018-02-13T03:01:12.745Z,0.93
2018-02-13T03:02:27.381Z,0.94
2018-02-13T03:03:42.569Z,0.94
2018-02-13T03:04:56.923Z,0.93
2018-02-13T03:06:11.855Z,0.9
2018-02-13T03:07:26.521Z,0.89
2018-02-13T03:08:41.470Z,0.87
2018-02-13T03:09:56.090Z,0.84
2018-02-13T03:11:11.381Z,0.85
2018-02-13T03:12:26.006Z,0.86
2018-02-13T03:13:40.768Z,0.86
2018-02-13T03:14:55.946Z,0.85
2018-02-13T03:16:11.115Z,0.85
2018-02-13T03:17:25.544Z,0.85
2018-02-13T03:18:40.433Z,0.84
2018-02-13T03:19:55.288Z,0.84
2018-02-13T03:21:10.204Z,0.83
2018-02-13T03:22:24.606Z,0.84
2018-02-13T03:23:39.190Z,0.85
2018-02-13T03:24:53.808Z,0.87
2018-02-13T03:26:08.770Z,0.88
2018-02-13T03:27:23.533Z,0.88
2018-02-13T03:28:38.172Z,0.85
2018-02-13T03:29:52.585Z,0.83
2018-02-13T03:31:07.851Z,0.78
2018-02-13T03:32:23.183Z,0.73
2018-02-13T03:33:38.397Z,0.7
2018-02-13T03:34:53.554Z,0.67
2018-02-13T03:36:08.524Z,0.63
2018-02-13T03:37:23.668Z,0.58
2018-02-13T03:38:38.257Z,0.57
2018-02-13T03:39:54.012Z,0.53
2018-02-13T03:41:08.573Z,0.51
2018-02-13T03:42:23.655Z,0.51
2018-02-13T03:43:38.259Z,0.5
2018-02-13T03:44:53.365Z,0.5
2018-02-13T03:46:08.523Z,0.52
2018-02-13T03:47:23.223Z,0.52
2018-02-13T03:48:38.139Z,0.55
2018-02-13T03:49:52.801Z,0.56
2018-02-13T03:51:07.422Z,0.56
2018-02-13T03:52:22.474Z,0.59
2018-02-13T03:53:36.824Z,0.6
2018-02-13T03:54:51.794Z,0.61
2018-02-13T03:56:06.650Z,0.62
2018-02-13T03:57:21.429Z,0.63
2018-02-13T03:58:36.364Z,0.65
2018-02-13T03:59:51.694Z,0.63
2018-02-13T04:01:06.806Z,0.61
2018-02-13T04:02:21.759Z,0.58
2018-02-13T04:03:36.624Z,0.55
2018-02-13T04:04:51.834Z,0.54
2018-02-13T04:06:06.166Z,0.54
2018-02-13T04:07:21.001Z,0.53
2018-02-13T04:08:35.959Z,0.54
2018-02-13T04:09:50.617Z,0.52
2018-02-13T04:11:05.773Z,0.54
2018-02-13T04:12:21.051Z,0.53
2018-02-13T04:13:35.751Z,0.53
2018-02-13T04:14:50.385Z,0.53
2018-02-13T04:16:05.079Z,0.52
2018-02-13T04:17:20.286Z,0.52
2018-02-13T04:18:35.106Z,0.52
2018-02-13T04:19:50.109Z,0.53
2018-02-13T04:21:04.446Z,0.51
2018-02-13T04:22:19.136Z,0.5
2018-02-13T04:23:34.643Z,0.49
2018-02-13T04:24:49.315Z,0.47
2018-02-13T04:26:04.454Z,0.45
2018-02-13T04:27:19.392Z,0.44
2018-02-13T04:28:34.123Z,0.45
2018-02-13T04:29:49.570Z,0.44
2018-02-13T04:31:04.711Z,0.44
2018-02-13T04:32:39.288Z,0.43
2018-02-13T04:33:54.073Z,0.42
2018-02-13T04:35:09.077Z,0.43
2018-02-13T04:36:24.311Z,0.45
2018-02-13T04:37:39.025Z,0.46
2018-02-13T04:38:53.799Z,0.46
2018-02-13T04:40:09.328Z,0.46
2018-02-13T04:41:24.301Z,0.47
2018-02-13T04:42:39.494Z,0.49
2018-02-13T04:43:54.110Z,0.51
2018-02-13T04:45:09.296Z,0.5
2018-02-13T04:46:23.359Z,0.47
2018-02-13T04:47:38.259Z,0.45
2018-02-13T04:48:53.449Z,0.43
2018-02-13T04:50:08.377Z,0.4
2018-02-13T04:51:23.789Z,0.38
2018-02-13T04:52:38.713Z,0.35
2018-02-13T04:53:54.170Z,0.34
2018-02-13T04:55:09.298Z,0.33
2018-02-13T04:56:24.201Z,0.33
2018-02-13T04:57:38.681Z,0.3
2018-02-13T04:58:53.311Z,0.28
2018-02-13T05:00:08.483Z,0.27
2018-02-13T05:01:22.812Z,0.26
2018-02-13T05:02:37.956Z,0.27
2018-02-13T05:03:53.109Z,0.26
2018-02-13T05:05:08.078Z,0.27
2018-02-13T05:06:22.992Z,0.28
2018-02-13T05:07:37.607Z,0.27
2018-02-13T05:08:52.846Z,0.27
2018-02-13T05:10:07.654Z,0.27
2018-02-13T05:11:22.215Z,0.27
2018-02-13T05:12:37.796Z,0.26
2018-02-13T05:13:52.548Z,0.25
2018-02-13T05:15:07.162Z,0.22
2018-02-13T05:16:21.471Z,0.22
2018-02-13T05:17:35.508Z,0.2
2018-02-13T05:18:50.718Z,0.2
2018-02-13T05:20:05.713Z,0.21
2018-02-13T05:21:19.735Z,0.19
2018-02-13T05:22:34.363Z,0.17
2018-02-13T05:23:49.954Z,0.13
2018-02-13T05:25:05.133Z,0.1
2018-02-13T05:26:20.249Z,0.07
2018-02-13T05:27:34.328Z,0.05
2018-02-13T05:28:49.512Z,0.04
2018-02-13T05:30:04.969Z,0.02
2018-02-13T05:31:20.182Z,0.02
2018-02-13T05:32:34.177Z,0.03
2018-02-13T05:33:48.795Z,0.04
2018-02-13T05:35:03.907Z,0.04
2018-02-13T05:36:17.706Z,0.03
2018-02-13T05:37:32.602Z,0.03
2018-02-13T05:38:47.717Z,0.02
2018-02-13T05:40:02.648Z,0
2018-02-13T05:41:17.301Z,-0.01
2018-02-13T05:42:32.284Z,-0.04
2018-02-13T05:43:47.460Z,-0.01
2018-02-13T05:45:03.044Z,-0.03
2018-02-13T05:46:17.969Z,-0.04
2018-02-13T05:47:32.600Z,-0.04
2018-02-13T05:48:49.104Z,-0.05
2018-02-13T05:50:04.478Z,-0.07
2018-02-13T05:51:19.677Z,-0.07
2018-02-13T05:52:34.352Z,-0.1
2018-02-13T05:53:49.007Z,-0.1
2018-02-13T05:55:03.658Z,-0.12
2018-02-13T05:56:19.380Z,-0.15
2018-02-13T05:57:33.731Z,-0.14
2018-02-13T05:58:49.162Z,-0.16
2018-02-13T06:00:03.537Z,-0.2
2018-02-13T06:01:17.672Z,-0.22
2018-02-13T06:02:32.938Z,-0.27
2018-02-13T06:03:47.901Z,-0.25
2018-02-13T06:05:02.579Z,-0.26
2018-02-13T06:06:17.434Z,-0.27
2018-02-13T06:07:32.898Z,-0.27
2018-02-13T06:08:48.624Z,-0.27
2018-02-13T06:10:03.585Z,-0.28
2018-02-13T06:11:18.185Z,-0.29
2018-02-13T06:12:33.316Z,-0.29
2018-02-13T06:13:48.212Z,-0.27
2018-02-13T06:15:03.443Z,-0.26
2018-02-13T06:16:18.295Z,-0.24
2018-02-13T06:17:33.539Z,-0.22
2018-02-13T06:19:14.596Z,-0.23
2018-02-13T06:20:30.081Z,-0.23
2018-02-13T06:22:42.702Z,-0.23
2018-02-13T06:23:57.043Z,-0.24
2018-02-13T06:25:11.631Z,-0.23
2018-02-13T06:26:27.171Z,-0.19
2018-02-13T06:27:41.841Z,-0.19
2018-02-13T06:28:56.453Z,-0.16
2018-02-13T06:30:10.881Z,-0.16
2018-02-13T06:31:25.539Z,-0.16
2018-02-13T06:32:40.995Z,-0.19
2018-02-13T06:33:55.863Z,-0.18
2018-02-13T06:35:10.605Z,-0.22
2018-02-13T06:36:25.286Z,-0.23
2018-02-13T06:37:40.665Z,-0.25
2018-02-13T06:38:55.659Z,-0.28
2018-02-13T06:40:10.324Z,-0.29
2018-02-13T06:41:25.006Z,-0.3
2018-02-13T06:42:39.679Z,-0.35
2018-02-13T06:43:53.808Z,-0.34
2018-02-13T06:45:08.029Z,-0.38
2018-02-13T06:46:22.973Z,-0.39
2018-02-13T06:47:37.401Z,-0.41
2018-02-13T06:48:52.263Z,-0.45
2018-02-13T06:50:07.162Z,-0.46
2018-02-13T06:51:22.373Z,-0.45
2018-02-13T06:52:37.322Z,-0.46
2018-02-13T06:53:51.087Z,-0.43
2018-02-13T06:55:06.029Z,-0.39
2018-02-13T06:56:21.119Z,-0.39
2018-02-13T06:57:35.750Z,-0.35
2018-02-13T06:58:50.621Z,-0.34
2018-02-13T07:00:05.218Z,-0.32
2018-02-13T07:01:20.338Z,-0.27
2018-02-13T07:02:34.974Z,-0.23
2018-02-13T07:03:49.835Z,-0.17
2018-02-13T07:05:05.008Z,-0.14
2018-02-13T07:06:19.060Z,-0.1
2018-02-13T07:07:33.967Z,-0.08
2018-02-13T07:08:49.418Z,-0.02
2018-02-13T07:10:04.442Z,-0.02
2018-02-13T07:11:19.408Z,0.02
2018-02-13T07:12:33.244Z,0.02
2018-02-13T07:13:48.159Z,0.01
2018-02-13T07:15:02.538Z,0.05
2018-02-13T07:16:17.409Z,0.03
2018-02-13T07:17:32.766Z,0.04
2018-02-13T07:18:47.362Z,0.07
2018-02-13T07:20:02.053Z,0.1
2018-02-13T07:21:16.479Z,0.12
2018-02-13T07:22:31.644Z,0.15
2018-02-13T07:23:46.734Z,0.16
2018-02-13T07:27:23.386Z,0.27
2018-02-13T07:28:38.707Z,0.27
2018-02-13T07:29:53.881Z,0.31
2018-02-13T07:31:08.244Z,0.31
2018-02-13T07:32:23.128Z,0.36
2018-02-13T07:33:36.943Z,0.39
2018-02-13T07:34:52.338Z,0.43
2018-02-13T07:36:06.954Z,0.44
2018-02-13T07:37:21.892Z,0.46
2018-02-13T07:38:37.028Z,0.49
2018-02-13T07:39:52.220Z,0.49
2018-02-13T07:41:08.080Z,0.48
2018-02-13T07:42:23.452Z,0.47
2018-02-13T07:43:37.915Z,0.5
2018-02-13T07:44:53.082Z,0.49
2018-02-13T07:46:07.723Z,0.55
2018-02-13T07:47:23.161Z,0.54
2018-02-13T07:48:37.800Z,0.6
2018-02-13T07:49:52.401Z,0.63
2018-02-13T07:51:06.982Z,0.68
2018-02-13T07:52:21.819Z,0.71
2018-02-13T07:53:36.471Z,0.75
2018-02-13T07:54:51.954Z,0.8
2018-02-13T07:56:06.837Z,0.86
2018-02-13T07:57:21.813Z,0.92
2018-02-13T07:58:36.032Z,0.99
2018-02-13T07:59:51.240Z,1.02
2018-02-13T08:01:05.935Z,1.07
2018-02-13T08:02:20.897Z,1.15
2018-02-13T08:03:36.017Z,1.21
2018-02-13T08:04:51.260Z,1.26
2018-02-13T08:06:06.539Z,1.29
2018-02-13T08:07:21.467Z,1.34
2018-02-13T08:08:36.975Z,1.35
2018-02-13T08:09:51.627Z,1.4
2018-02-13T08:11:06.096Z,1.43
2018-02-13T08:12:21.428Z,1.49
2018-02-13T08:13:37.278Z,1.53
2018-02-13T08:14:51.643Z,1.58
2018-02-13T08:16:06.258Z,1.65
2018-02-13T08:17:21.588Z,1.72
2018-02-13T08:18:37.381Z,1.8
2018-02-13T08:19:53.004Z,1.87
2018-02-13T08:21:07.404Z,1.94
2018-02-13T08:22:22.366Z,2
2018-02-13T08:23:37.220Z,2.07
2018-02-13T08:24:52.443Z,2.17
2018-02-13T08:26:07.426Z,2.25
2018-02-13T08:27:22.613Z,2.32
2018-02-13T08:28:37.173Z,2.38
2018-02-13T08:29:52.392Z,2.46
2018-02-13T08:31:06.828Z,2.5
2018-02-13T08:32:21.598Z,2.54
2018-02-13T08:33:36.301Z,2.59
2018-02-13T08:34:50.445Z,2.63
2018-02-13T08:36:05.120Z,2.61
2018-02-13T08:37:19.763Z,2.61
2018-02-13T08:38:34.995Z,2.56
2018-02-13T08:39:49.697Z,2.47
2018-02-13T08:41:04.997Z,2.35
2018-02-13T08:42:19.847Z,2.29
2018-02-13T08:43:35.143Z,2.24
2018-02-13T08:44:49.890Z,2.21
2018-02-13T08:46:05.129Z,2.2
2018-02-13T08:47:20.428Z,2.2
2018-02-13T08:48:35.228Z,2.18
2018-02-13T08:49:50.673Z,2.18
2018-02-13T08:51:05.760Z,2.19
2018-02-13T08:52:21.303Z,2.21
2018-02-13T08:53:35.833Z,2.22
2018-02-13T08:54:50.265Z,2.24
2018-02-13T08:56:05.171Z,2.21
2018-02-13T08:57:20.039Z,2.22
2018-02-13T08:58:35.036Z,2.24
2018-02-13T08:59:59.494Z,2.24
2018-02-13T09:01:14.213Z,2.26
2018-02-13T09:02:48.567Z,2.27
2018-02-13T09:04:02.971Z,2.29
2018-02-13T09:05:17.907Z,2.3
2018-02-13T09:06:33.255Z,2.34
2018-02-13T09:07:48.209Z,2.37
2018-02-13T09:09:03.219Z,2.39
2018-02-13T09:10:18.277Z,2.42
2018-02-13T09:11:32.750Z,2.48
2018-02-13T09:12:48.430Z,2.53
2018-02-13T09:14:03.926Z,2.57
2018-02-13T09:15:19.208Z,2.61
2018-02-13T09:16:34.148Z,2.65
2018-02-13T09:17:49.182Z,2.7
2018-02-13T09:19:04.411Z,2.73
2018-02-13T09:20:20.074Z,2.78
2018-02-13T09:21:34.801Z,2.83
2018-02-13T09:22:50.271Z,2.88
2018-02-13T09:24:04.748Z,2.89
2018-02-13T09:25:19.706Z,2.91
2018-02-13T09:26:33.832Z,2.93
2018-02-13T09:27:48.722Z,2.96
2018-02-13T09:29:04.064Z,3.02
2018-02-13T09:30:18.766Z,3.05
2018-02-13T09:31:33.809Z,3.09
2018-02-13T09:32:50.455Z,3.12
2018-02-13T09:34:05.494Z,3.14
2018-02-13T09:35:19.661Z,3.17
2018-02-13T09:36:34.379Z,3.19
2018-02-13T09:37:49.312Z,3.26
2018-02-13T09:39:03.752Z,3.29
2018-02-13T09:40:17.929Z,3.35
2018-02-13T09:41:32.953Z,3.39
2018-02-13T09:42:46.721Z,3.41
2018-02-13T09:44:01.905Z,3.43
2018-02-13T09:45:16.302Z,3.5
2018-02-13T09:46:30.793Z,3.57
2018-02-13T09:47:45.867Z,3.58
2018-02-13T09:49:00.994Z,3.62
2018-02-13T09:50:15.684Z,3.68
2018-02-13T09:51:30.867Z,3.7
2018-02-13T09:52:45.339Z,3.73
2018-02-13T09:53:59.839Z,3.76
2018-02-13T09:55:14.567Z,3.76
2018-02-13T09:56:29.581Z,3.78
2018-02-13T09:57:44.310Z,3.82
2018-02-13T09:58:59.644Z,3.84
2018-02-13T10:00:14.660Z,3.86
2018-02-13T10:01:28.866Z,3.91
2018-02-13T10:02:44.105Z,3.94
2018-02-13T10:03:58.877Z,3.98
2018-02-13T10:05:13.574Z,4.03
2018-02-13T10:06:27.973Z,4.06
2018-02-13T10:07:42.667Z,4.1
2018-02-13T10:08:57.995Z,4.18
2018-02-13T10:10:12.562Z,4.21
2018-02-13T10:11:27.549Z,4.24
2018-02-13T10:12:41.912Z,4.24
2018-02-13T10:13:56.564Z,4.26
2018-02-13T10:15:11.976Z,4.26
2018-02-13T10:16:26.124Z,4.35
2018-02-13T10:17:41.071Z,4.4
2018-02-13T10:18:55.751Z,4.47
2018-02-13T10:20:10.590Z,4.55
2018-02-13T10:21:25.760Z,4.6
2018-02-13T10:22:40.126Z,4.69
2018-02-13T10:23:54.804Z,4.73
2018-02-13T10:25:11.574Z,4.8
2018-02-13T10:26:25.965Z,4.84
2018-02-13T10:27:41.469Z,4.88
2018-02-13T10:28:55.831Z,4.89
2018-02-13T10:30:11.205Z,4.9
2018-02-13T10:31:25.891Z,4.89
2018-02-13T10:32:40.342Z,4.92
2018-02-13T10:33:55.852Z,4.96
2018-02-13T10:35:11.004Z,4.98
2018-02-13T10:36:25.856Z,4.94
2018-02-13T10:37:40.670Z,4.9
2018-02-13T10:38:55.594Z,4.87
2018-02-13T10:40:10.645Z,4.89
2018-02-13T10:41:25.619Z,4.89
2018-02-13T10:42:40.573Z,4.9
2018-02-13T10:43:55.734Z,4.92
2018-02-13T10:45:11.334Z,4.92
2018-02-13T10:46:26.345Z,4.95
2018-02-13T10:47:41.688Z,4.98
2018-02-13T10:48:56.608Z,5.04
2018-02-13T10:50:11.195Z,5.09
2018-02-13T10:51:26.422Z,5.13
2018-02-13T10:52:41.924Z,5.17
2018-02-13T10:53:57.109Z,5.19
2018-02-13T10:55:12.546Z,5.25
2018-02-13T10:56:27.468Z,5.29
2018-02-13T10:57:42.161Z,5.31
2018-02-13T10:58:57.730Z,5.34
2018-02-13T11:00:12.977Z,5.36
2018-02-13T11:01:28.175Z,5.39
2018-02-13T11:02:43.074Z,5.43
2018-02-13T11:03:57.718Z,5.48
2018-02-13T11:05:13.035Z,5.54
2018-02-13T11:06:27.470Z,5.57
2018-02-13T11:07:42.393Z,5.6
2018-02-13T11:09:22.868Z,5.63
2018-02-13T11:10:37.704Z,5.64
2018-02-13T11:11:52.314Z,5.64
2018-02-13T11:13:07.217Z,5.65
2018-02-13T11:14:21.849Z,5.66
2018-02-13T11:15:36.900Z,5.68
2018-02-13T11:16:52.661Z,5.7
2018-02-13T11:18:07.338Z,5.67
2018-02-13T11:19:22.482Z,5.66
2018-02-13T11:20:37.262Z,5.66
2018-02-13T11:21:52.215Z,5.67
2018-02-13T11:23:06.680Z,5.69
2018-02-13T11:24:21.389Z,5.69
2018-02-13T11:25:36.509Z,5.7
2018-02-13T11:26:50.903Z,5.72
2018-02-13T11:28:05.964Z,5.77
2018-02-13T11:29:20.604Z,5.8
2018-02-13T11:30:35.889Z,5.87
2018-02-13T11:31:50.572Z,5.9
2018-02-13T11:33:05.062Z,5.95
2018-02-13T11:34:19.837Z,5.99
2018-02-13T11:35:35.229Z,6.05
2018-02-13T11:36:50.478Z,6.08
2018-02-13T11:38:04.822Z,6.16
2018-02-13T11:39:19.305Z,6.2
2018-02-13T11:40:34.513Z,6.27
2018-02-13T11:41:49.254Z,6.36
2018-02-13T11:43:05.169Z,6.46
2018-02-13T11:44:20.379Z,6.55
2018-02-13T11:45:35.477Z,6.57
2018-02-13T11:46:50.685Z,6.6
2018-02-13T11:48:05.162Z,6.66
2018-02-13T11:49:19.881Z,6.75
2018-02-13T11:50:34.779Z,6.87
2018-02-13T11:51:49.109Z,6.96
2018-02-13T11:53:03.489Z,7.04
2018-02-13T11:54:18.981Z,7.18
2018-02-13T11:55:33.701Z,7.27
2018-02-13T11:56:48.667Z,7.33
2018-02-13T11:58:04.336Z,7.4
2018-02-13T11:59:19.853Z,7.47
2018-02-13T12:00:35.522Z,7.53
2018-02-13T12:01:50.217Z,7.61
2018-02-13T12:03:05.182Z,7.68
2018-02-13T12:04:20.319Z,7.78
2018-02-13T12:05:35.425Z,7.84
2018-02-13T12:06:50.766Z,7.91
2018-02-13T12:08:05.450Z,7.93
2018-02-13T12:09:20.793Z,7.98
2018-02-13T12:10:35.514Z,8.06
2018-02-13T12:11:50.211Z,8.13
2018-02-13T12:13:05.450Z,8.2
2018-02-13T12:14:20.160Z,8.31
2018-02-13T12:15:35.357Z,8.36
2018-02-13T12:16:49.800Z,8.37
2018-02-13T12:18:04.508Z,8.41
2018-02-13T12:19:19.885Z,8.39
2018-02-13T12:20:34.301Z,8.38
2018-02-13T12:21:50.046Z,8.42
2018-02-13T12:23:04.175Z,8.48
2018-02-13T12:24:18.640Z,8.52
2018-02-13T12:25:33.732Z,8.46
2018-02-13T12:26:49.086Z,8.43
2018-02-13T12:28:03.763Z,8.45
2018-02-13T12:29:18.188Z,8.49
2018-02-13T12:30:32.852Z,8.57
2018-02-13T12:31:48.638Z,8.65
2018-02-13T12:33:03.618Z,8.67
2018-02-13T12:34:18.073Z,8.64
2018-02-13T12:35:32.730Z,8.57
2018-02-13T12:36:48.070Z,8.5
2018-02-13T12:38:03.337Z,8.47
2018-02-13T12:39:17.905Z,8.38
2018-02-13T12:40:32.024Z,8.34
2018-02-13T12:41:47.415Z,8.25
2018-02-13T12:43:02.621Z,8.2
2018-02-13T12:44:17.103Z,8.17
2018-02-13T12:45:31.442Z,8.16
2018-02-13T12:46:47.034Z,8.17
2018-02-13T12:48:02.504Z,8.17
2018-02-13T12:49:16.424Z,8.2
2018-02-13T12:50:31.438Z,8.24
2018-02-13T12:51:46.803Z,8.25
2018-02-13T12:53:01.202Z,8.28
2018-02-13T12:54:15.624Z,8.34
2018-02-13T12:55:30.313Z,8.35
2018-02-13T12:56:45.137Z,8.34
2018-02-13T12:57:59.681Z,8.26
2018-02-13T12:59:14.129Z,8.22
2018-02-13T13:00:29.085Z,8.12
2018-02-13T13:01:43.546Z,8.06
2018-02-13T13:02:58.808Z,8
2018-02-13T13:04:13.735Z,8.01
2018-02-13T13:05:28.379Z,7.98
2018-02-13T13:06:43.617Z,7.89
2018-02-13T13:07:58.244Z,7.86
2018-02-13T13:09:13.548Z,7.86
2018-02-13T13:10:28.779Z,7.88
2018-02-13T13:11:43.163Z,7.9
2018-02-13T13:12:59.001Z,7.91
2018-02-13T13:14:14.063Z,7.93
2018-02-13T13:15:29.303Z,7.94
2018-02-13T13:16:44.060Z,7.9
2018-02-13T13:17:58.865Z,7.87
2018-02-13T13:19:14.121Z,7.84
2018-02-13T13:20:29.215Z,7.77
2018-02-13T13:21:44.137Z,7.67
2018-02-13T13:22:58.629Z,7.52
2018-02-13T13:24:13.401Z,7.35
2018-02-13T13:25:28.461Z,7.26
2018-02-13T13:26:43.497Z,7.21
2018-02-13T13:27:58.978Z,7.16
2018-02-13T13:29:13.383Z,7.09
2018-02-13T13:30:27.573Z,7.02
2018-02-13T13:31:42.136Z,6.96
2018-02-13T13:32:56.629Z,6.93
2018-02-13T13:34:11.028Z,6.94
2018-02-13T13:35:25.440Z,6.94
2018-02-13T13:36:39.786Z,6.92
2018-02-13T13:37:55.476Z,6.9
2018-02-13T13:39:10.117Z,6.89
2018-02-13T13:40:25.141Z,6.88
2018-02-13T13:41:40.081Z,6.89
2018-02-13T13:42:54.728Z,6.88
2018-02-13T13:44:09.379Z,6.87
2018-02-13T13:45:24.062Z,6.89
2018-02-13T13:46:39.522Z,6.94
2018-02-13T13:47:53.797Z,6.93
2018-02-13T13:49:08.466Z,6.88
2018-02-13T13:50:23.407Z,6.83
2018-02-13T13:51:37.480Z,6.81
2018-02-13T13:52:53.326Z,6.82
2018-02-13T13:54:08.289Z,6.82
2018-02-13T13:55:22.964Z,6.85
2018-02-13T13:56:37.365Z,6.84
2018-02-13T13:57:52.397Z,6.87
2018-02-13T13:59:07.422Z,6.87
2018-02-13T14:00:21.248Z,6.94
2018-02-13T14:01:36.222Z,7.03
2018-02-13T14:02:51.205Z,7.1
2018-02-13T14:04:05.673Z,7.12
2018-02-13T14:05:20.388Z,7.13
2018-02-13T14:06:35.334Z,7.12
2018-02-13T14:07:49.459Z,7.14
2018-02-13T14:09:04.313Z,7.19
2018-02-13T14:10:21.496Z,7.23
2018-02-13T14:12:27.091Z,7.25
2018-02-13T14:13:42.577Z,7.28
2018-02-13T14:14:57.330Z,7.3
2018-02-13T14:18:49.781Z,7.25
2018-02-13T14:20:05.061Z,7.18
2018-02-13T14:21:20.139Z,7.09
2018-02-13T14:22:35.122Z,7.04
2018-02-13T14:23:49.257Z,6.98
2018-02-13T14:25:04.255Z,6.92
2018-02-13T14:26:19.470Z,6.89
2018-02-13T14:27:33.931Z,6.85
2018-02-13T14:28:49.152Z,6.81
2018-02-13T14:30:03.879Z,6.77
2018-02-13T14:31:19.571Z,6.79
2018-02-13T14:32:33.962Z,6.81
2018-02-13T14:33:49.307Z,6.84
2018-02-13T14:35:03.519Z,6.87
2018-02-13T14:36:18.508Z,6.88
2018-02-13T14:37:34.363Z,6.9
2018-02-13T14:38:49.407Z,6.91
2018-02-13T14:40:04.822Z,6.89
2018-02-13T14:41:19.557Z,6.88
2018-02-13T14:42:34.862Z,6.91
2018-02-13T14:43:50.214Z,6.92
2018-02-13T14:45:05.034Z,6.95
2018-02-13T14:46:19.424Z,6.94
2018-02-13T14:47:34.198Z,6.92
2018-02-13T14:48:48.918Z,6.95
2018-02-13T14:50:04.092Z,6.96
2018-02-13T14:51:19.162Z,6.99
2018-02-13T14:52:33.349Z,7.03
2018-02-13T14:53:48.397Z,7.05
2018-02-13T14:55:04.863Z,7.07
2018-02-13T14:56:20.171Z,7.08
2018-02-13T14:57:36.349Z,7.05
2018-02-13T14:58:52.646Z,7.04
2018-02-13T15:00:07.917Z,7.08
2018-02-13T15:01:22.742Z,7.06
2018-02-13T15:02:37.787Z,7.01
2018-02-13T15:03:51.919Z,6.97
2018-02-13T15:05:06.116Z,6.91
2018-02-13T15:06:20.767Z,6.86
2018-02-13T15:07:36.084Z,6.8
2018-02-13T15:08:50.752Z,6.79
2018-02-13T15:10:05.914Z,6.77
2018-02-13T15:15:44.358Z,6.84
2018-02-13T15:16:59.366Z,6.84
2018-02-13T15:18:14.310Z,6.84
2018-02-13T15:19:28.956Z,6.82
2018-02-13T15:20:44.297Z,6.75
2018-02-13T15:21:58.768Z,6.7
2018-02-13T15:23:13.980Z,6.64
2018-02-13T15:24:28.794Z,6.59
2018-02-13T15:25:43.157Z,6.57
2018-02-13T15:26:58.046Z,6.58
2018-02-13T15:28:13.294Z,6.55
2018-02-13T15:29:28.274Z,6.54
2018-02-13T15:30:42.966Z,6.49
2018-02-13T15:31:57.918Z,6.46
2018-02-13T15:33:12.667Z,6.44
2018-02-13T15:34:27.388Z,6.39
2018-02-13T15:35:42.794Z,6.32
2018-02-13T15:36:57.461Z,6.29
2018-02-13T15:38:12.152Z,6.3
2018-02-13T15:39:27.175Z,6.32
2018-02-13T15:40:42.193Z,6.3
2018-02-13T15:41:57.939Z,6.29
2018-02-13T15:43:12.765Z,6.3
2018-02-13T15:44:27.532Z,6.3
2018-02-13T15:45:43.098Z,6.29
2018-02-13T15:46:58.106Z,6.3
2018-02-13T15:48:13.406Z,6.27
2018-02-13T15:49:28.071Z,6.25
2018-02-13T15:50:42.416Z,6.22
2018-02-13T15:51:57.568Z,6.21
2018-02-13T15:53:12.892Z,6.21
2018-02-13T15:54:28.183Z,6.2
2018-02-13T15:55:43.070Z,6.19
2018-02-13T15:56:57.972Z,6.18
2018-02-13T15:58:13.014Z,6.21
2018-02-13T15:59:28.282Z,6.22
2018-02-13T16:00:43.837Z,6.23
2018-02-13T16:01:58.665Z,6.27
2018-02-13T16:03:13.994Z,6.3
2018-02-13T16:04:28.898Z,6.31
2018-02-13T16:05:43.340Z,6.32
2018-02-13T16:06:58.315Z,6.31
2018-02-13T16:08:13.308Z,6.3
2018-02-13T16:09:28.276Z,6.29
2018-02-13T16:10:43.218Z,6.26
2018-02-13T16:11:57.687Z,6.26
2018-02-13T16:13:12.605Z,6.22
2018-02-13T16:14:27.067Z,6.21
2018-02-13T16:15:42.330Z,6.1
2018-02-13T16:16:57.422Z,6
2018-02-13T16:18:12.647Z,5.92
2018-02-13T16:19:27.091Z,5.84
2018-02-13T16:20:42.314Z,5.76
2018-02-13T16:21:57.077Z,5.68
2018-02-13T16:23:11.708Z,5.64
2018-02-13T16:24:26.442Z,5.63
2018-02-13T16:25:41.456Z,5.67
2018-02-13T16:26:56.531Z,5.67
2018-02-13T16:28:10.582Z,5.66
2018-02-13T16:29:25.562Z,5.64
2018-02-13T16:30:40.228Z,5.59
2018-02-13T16:31:55.599Z,5.56
2018-02-13T16:33:10.423Z,5.49
2018-02-13T16:34:25.454Z,5.42
2018-02-13T16:35:40.402Z,5.37
2018-02-13T16:36:55.434Z,5.31
2018-02-13T16:38:10.681Z,5.26
2018-02-13T16:39:26.241Z,5.19
2018-02-13T16:40:40.906Z,5.12
2018-02-13T16:41:56.704Z,5.04
2018-02-13T16:43:11.057Z,4.99
2018-02-13T16:44:26.365Z,4.94
2018-02-13T16:45:40.831Z,4.91
2018-02-13T16:46:55.487Z,4.86
2018-02-13T16:48:10.158Z,4.85
2018-02-13T16:49:24.611Z,4.8
2018-02-13T16:50:39.840Z,4.75